Terminal Aerodrome Forecast
Issued by NWS

Home | Current Version | Previous Version | Graphics & Text | Print | Product List | Glossary On
Versions: 1 2 3 4 5 6 7 8 9 10 11 12 13 14
000
FTUS41 KCLE 201500 AAA
TAFFDY
TAF AMD
KFDY 201521Z 2015/2112 06008KT P6SM SCT025 OVC250
      TEMPO 2015/2018 BKN025
     FM201800 03007KT P6SM OVC100
     FM210100 05005KT 6SM -SHRA BR OVC050
     FM210600 VRB03KT P6SM OVC050=

USA.gov is the U.S. government's official web portal to all federal, state and local government web resources and services.